Time;durP1;ratioP1;P1;durP2;ratioP2;P2;SDS_P1;SDS_P2;PMS_P1;PMS_P2;Temp;Humidity;BMP_temperature;BMP_pressure;BME280_temperature;BME280_humidity;BME280_pressure;Samples;Min_cycle;Max_cycle;Signal;HPM_P1;HPM_P2
2022/07/02 00:00:53;;;;;;;4.57;2.90;;;13.00;99.90;;;;;;6245548;23;20505;-80
2022/07/02 00:03:28;;;;;;;5.80;3.40;;;12.90;99.90;;;;;;6246066;23;20012;-80
2022/07/02 00:05:59;;;;;;;7.38;3.20;;;12.90;99.90;;;;;;6219264;23;20016;-80
2022/07/02 00:08:26;;;;;;;6.50;3.45;;;12.90;99.90;;;;;;6247805;23;20016;-80
2022/07/02 00:10:52;;;;;;;6.63;3.30;;;12.80;99.90;;;;;;6221365;23;20070;-80
2022/07/02 00:13:20;;;;;;;9.95;3.83;;;12.80;99.90;;;;;;6221146;23;20056;-80
2022/07/02 00:15:46;;;;;;;5.47;3.33;;;12.80;99.90;;;;;;6221786;23;20395;-81
2022/07/02 00:18:12;;;;;;;7.53;3.80;;;12.80;99.90;;;;;;6221232;23;20016;-80
2022/07/02 00:20:40;;;;;;;7.85;3.38;;;12.90;99.90;;;;;;6195799;23;20031;-80
2022/07/02 00:23:06;;;;;;;7.13;3.53;;;12.90;99.90;;;;;;6247438;23;20458;-84
2022/07/02 00:25:43;;;;;;;7.47;3.70;;;12.80;99.90;;;;;;6221076;23;20020;-81
2022/07/02 00:28:11;;;;;;;7.30;3.58;;;12.80;99.90;;;;;;6220366;23;20016;-80
2022/07/02 00:30:45;;;;;;;5.20;3.22;;;12.70;99.90;;;;;;6247883;23;20012;-80
2022/07/02 00:33:13;;;;;;;5.50;3.53;;;12.70;99.90;;;;;;6221091;23;20340;-80
2022/07/02 00:35:40;;;;;;;6.82;3.88;;;12.60;99.90;;;;;;6220857;23;20340;-82
2022/07/02 00:38:07;;;;;;;7.35;3.65;;;12.60;99.90;;;;;;6248135;23;20016;-81
2022/07/02 00:40:33;;;;;;;5.35;3.58;;;12.60;99.90;;;;;;6219804;23;20348;-81
2022/07/02 00:42:59;;;;;;;6.72;3.65;;;12.60;99.90;;;;;;6220943;23;20451;-80
2022/07/02 00:45:26;;;;;;;9.23;3.88;;;12.60;99.90;;;;;;6221027;23;20022;-80
2022/07/02 00:47:54;;;;;;;9.80;3.78;;;12.50;99.90;;;;;;6247610;23;20013;-80
2022/07/02 00:50:22;;;;;;;6.55;3.60;;;12.60;99.90;;;;;;6247537;23;20399;-81
2022/07/02 00:52:47;;;;;;;7.50;4.00;;;12.50;99.90;;;;;;6247508;23;20345;-80
2022/07/02 00:55:13;;;;;;;8.80;4.20;;;12.40;99.90;;;;;;6247671;23;20038;-80
2022/07/02 00:57:40;;;;;;;7.82;3.92;;;12.40;99.90;;;;;;6247864;23;20083;-80
2022/07/02 01:00:07;;;;;;;7.75;3.95;;;12.30;99.90;;;;;;6247530;23;20026;-80
2022/07/02 01:02:36;;;;;;;5.50;4.25;;;12.30;99.90;;;;;;6247484;23;20012;-80
2022/07/02 01:05:02;;;;;;;7.28;4.28;;;12.20;99.90;;;;;;6247297;23;20059;-81
2022/07/02 01:07:30;;;;;;;11.05;4.70;;;12.20;99.90;;;;;;6247128;23;20042;-80
2022/07/02 01:10:18;;;;;;;9.18;4.63;;;12.30;99.90;;;;;;6247470;23;20020;-80
2022/07/02 01:12:46;;;;;;;11.13;4.65;;;12.20;99.90;;;;;;6247537;23;20356;-80
2022/07/02 01:15:13;;;;;;;9.10;4.70;;;12.10;99.90;;;;;;6247425;23;20016;-80
2022/07/02 01:17:38;;;;;;;7.00;4.63;;;12.10;99.90;;;;;;6220497;23;20436;-80
2022/07/02 01:20:05;;;;;;;9.32;4.93;;;12.10;99.90;;;;;;6247262;23;20051;-80
2022/07/02 01:22:33;;;;;;;8.32;4.85;;;12.10;99.90;;;;;;6247322;23;20012;-80
2022/07/02 01:24:59;;;;;;;8.10;4.60;;;12.10;99.90;;;;;;6247395;23;20332;-81
2022/07/02 01:27:25;;;;;;;8.43;4.70;;;12.10;99.90;;;;;;6247472;23;20020;-81
2022/07/02 01:29:51;;;;;;;5.78;4.38;;;12.00;99.90;;;;;;6247232;23;20063;-80
2022/07/02 01:32:17;;;;;;;7.43;4.75;;;12.00;99.90;;;;;;6247408;23;20044;-81
2022/07/02 01:35:00;;;;;;;9.18;4.80;;;12.00;99.90;;;;;;6247057;23;20016;-81
2022/07/02 01:37:26;;;;;;;7.78;4.72;;;11.90;99.90;;;;;;6221117;23;20030;-80
2022/07/02 01:39:51;;;;;;;8.55;4.15;;;12.00;99.90;;;;;;6247241;23;20507;-80
2022/07/02 01:42:17;;;;;;;9.00;4.93;;;12.00;99.90;;;;;;6247013;23;20436;-80
2022/07/02 01:44:45;;;;;;;8.25;4.70;;;12.00;99.90;;;;;;6247155;23;20012;-80
2022/07/02 01:47:12;;;;;;;8.13;4.90;;;11.90;99.90;;;;;;6246984;23;20016;-81
2022/07/02 01:49:38;;;;;;;11.43;4.88;;;11.90;99.90;;;;;;6220721;23;20020;-82
2022/07/02 01:52:05;;;;;;;8.95;4.82;;;11.90;99.90;;;;;;6247427;23;20012;-81
2022/07/02 01:54:31;;;;;;;8.27;4.50;;;11.90;99.90;;;;;;6247027;23;20012;-80
2022/07/02 01:56:58;;;;;;;11.75;5.32;;;11.90;99.90;;;;;;6247126;23;20094;-80
2022/07/02 01:59:24;;;;;;;7.35;5.40;;;11.90;99.90;;;;;;6246974;23;20027;-80
2022/07/02 02:01:50;;;;;;;7.28;5.18;;;12.00;99.90;;;;;;6246850;23;20375;-82
2022/07/02 02:04:15;;;;;;;10.57;5.20;;;12.00;99.90;;;;;;6246948;23;20463;-80
2022/07/02 02:06:41;;;;;;;6.80;4.32;;;12.00;99.90;;;;;;6247024;23;20458;-80
2022/07/02 02:09:07;;;;;;;11.63;5.70;;;12.00;99.90;;;;;;6220029;23;20016;-80
2022/07/02 02:11:33;;;;;;;8.98;4.70;;;12.00;99.90;;;;;;6194848;23;20024;-81
2022/07/02 02:13:59;;;;;;;7.28;4.70;;;12.10;99.90;;;;;;6246967;23;20016;-80
2022/07/02 02:16:30;;;;;;;10.68;5.30;;;12.00;99.90;;;;;;6219960;23;20020;-80
2022/07/02 02:18:57;;;;;;;6.78;4.72;;;12.00;99.90;;;;;;6246647;23;20012;-80
2022/07/02 02:21:24;;;;;;;7.25;4.82;;;12.00;99.90;;;;;;6219894;23;20023;-80
2022/07/02 02:23:50;;;;;;;8.25;4.80;;;12.10;99.90;;;;;;6246723;23;20019;-80
2022/07/02 02:26:16;;;;;;;10.63;6.18;;;11.90;99.90;;;;;;6246782;23;20325;-80
2022/07/02 02:28:42;;;;;;;8.35;5.28;;;12.00;99.90;;;;;;6246597;23;20016;-80
2022/07/02 02:31:07;;;;;;;7.55;5.05;;;11.90;99.90;;;;;;6246374;23;20024;-80
2022/07/02 02:33:33;;;;;;;10.57;5.50;;;11.80;99.90;;;;;;6219750;23;20015;-80
2022/07/02 02:35:59;;;;;;;10.15;5.88;;;11.80;99.90;;;;;;6246357;23;20066;-80
2022/07/02 02:38:25;;;;;;;11.23;6.40;;;11.80;99.90;;;;;;6246691;23;20463;-80
2022/07/02 02:40:51;;;;;;;7.22;5.95;;;11.70;99.90;;;;;;6219651;23;20027;-80
2022/07/02 02:43:16;;;;;;;9.93;5.63;;;11.70;99.90;;;;;;6219177;23;20325;-83
2022/07/02 02:45:42;;;;;;;10.35;6.07;;;11.70;99.90;;;;;;6246679;23;20086;-81
2022/07/02 02:48:08;;;;;;;12.05;6.28;;;11.60;99.90;;;;;;6219537;23;20066;-81
2022/07/02 02:50:34;;;;;;;8.45;5.32;;;11.60;99.90;;;;;;6246500;23;20020;-81
2022/07/02 02:52:59;;;;;;;10.35;5.85;;;11.50;99.90;;;;;;6246105;23;20447;-81
2022/07/02 02:55:25;;;;;;;9.50;5.30;;;11.40;99.90;;;;;;6246839;23;20023;-81
2022/07/02 02:57:52;;;;;;;11.30;5.85;;;11.40;99.90;;;;;;6246579;23;20016;-81
2022/07/02 03:00:17;;;;;;;10.20;6.70;;;11.40;99.90;;;;;;6246293;23;20494;-80
2022/07/02 03:02:43;;;;;;;15.13;6.38;;;11.40;99.90;;;;;;6219338;23;20012;-80
2022/07/02 03:05:09;;;;;;;10.90;6.15;;;11.40;99.90;;;;;;6218904;23;20099;-80
2022/07/02 03:07:35;;;;;;;10.30;6.30;;;11.40;99.90;;;;;;6219697;23;20099;-80
2022/07/02 03:10:00;;;;;;;8.57;6.13;;;11.40;99.90;;;;;;6246323;23;20031;-80
2022/07/02 03:12:26;;;;;;;10.50;5.43;;;11.50;99.90;;;;;;6219861;23;20336;-81
2022/07/02 03:14:52;;;;;;;12.30;6.70;;;11.50;99.90;;;;;;6246411;23;20459;-80
2022/07/02 03:17:18;;;;;;;11.82;6.88;;;11.50;99.90;;;;;;6219087;23;20020;-80
2022/07/02 03:19:45;;;;;;;13.93;6.75;;;11.50;99.90;;;;;;6246190;23;20018;-80
2022/07/02 03:22:11;;;;;;;10.75;6.85;;;11.50;99.90;;;;;;6219269;23;20008;-80
2022/07/02 03:24:37;;;;;;;7.13;5.32;;;11.40;99.90;;;;;;6245860;23;20020;-80
2022/07/02 03:27:02;;;;;;;10.52;5.68;;;11.40;99.90;;;;;;6246238;23;20020;-81
2022/07/02 03:29:28;;;;;;;11.82;7.03;;;11.40;99.90;;;;;;6219482;23;20016;-80
2022/07/02 03:31:54;;;;;;;10.15;6.55;;;11.40;99.90;;;;;;6246218;23;20054;-81
2022/07/02 03:34:19;;;;;;;8.80;6.07;;;11.50;99.90;;;;;;6245974;23;20094;-80
2022/07/02 03:36:45;;;;;;;10.80;6.93;;;11.50;99.90;;;;;;6219477;23;20101;-80
2022/07/02 03:39:11;;;;;;;10.00;7.10;;;11.50;99.90;;;;;;6219494;23;20432;-80
2022/07/02 03:41:36;;;;;;;14.45;6.65;;;11.50;99.90;;;;;;6219251;23;20340;-80
2022/07/02 03:44:02;;;;;;;15.88;7.20;;;11.50;99.90;;;;;;6246102;23;20073;-80
2022/07/02 03:46:28;;;;;;;12.57;6.50;;;11.50;99.90;;;;;;6219525;23;20020;-80
2022/07/02 03:48:53;;;;;;;8.38;6.53;;;11.50;99.90;;;;;;6246403;23;20016;-82
2022/07/02 03:51:20;;;;;;;11.40;5.78;;;11.50;99.90;;;;;;6193925;23;20016;-80
2022/07/02 03:53:46;;;;;;;13.30;7.60;;;11.50;99.90;;;;;;6246074;23;20016;-80
2022/07/02 03:56:11;;;;;;;11.73;7.25;;;11.60;99.90;;;;;;6246013;23;20012;-80
2022/07/02 03:58:37;;;;;;;10.48;6.72;;;11.60;99.90;;;;;;6246276;23;20023;-80
2022/07/02 04:01:03;;;;;;;8.82;7.13;;;11.60;99.90;;;;;;6219123;23;20428;-81
2022/07/02 04:03:28;;;;;;;9.82;6.25;;;11.60;99.90;;;;;;6219134;23;20395;-80
2022/07/02 04:05:54;;;;;;;14.27;7.97;;;11.60;99.90;;;;;;6245895;23;20073;-80
2022/07/02 04:08:19;;;;;;;12.23;7.22;;;11.60;99.90;;;;;;6245941;23;20023;-80
2022/07/02 04:14:28;;;;;;;11.45;7.30;;;11.60;99.90;;;;;;6244355;23;20019;-81
2022/07/02 04:16:54;;;;;;;12.70;6.63;;;11.60;99.90;;;;;;6245224;23;20016;-81
2022/07/02 04:19:19;;;;;;;12.68;6.82;;;11.70;99.90;;;;;;6245271;23;20313;-81
2022/07/02 04:21:45;;;;;;;13.60;7.78;;;11.70;99.90;;;;;;6193003;23;20019;-80
2022/07/02 04:24:11;;;;;;;11.95;7.25;;;11.80;99.90;;;;;;6245344;23;20019;-81
2022/07/02 04:26:36;;;;;;;12.48;7.68;;;11.90;99.90;;;;;;6218068;23;20372;-81
2022/07/02 04:29:02;;;;;;;12.43;7.70;;;11.90;99.90;;;;;;6245099;23;20023;-82
2022/07/02 04:31:28;;;;;;;12.10;7.22;;;12.00;99.90;;;;;;6218429;23;20016;-80
2022/07/02 04:33:53;;;;;;;10.43;7.28;;;12.10;99.90;;;;;;6217081;23;20020;-80
2022/07/02 04:36:19;;;;;;;11.35;7.65;;;12.10;99.90;;;;;;6192771;23;20020;-80
2022/07/02 04:38:45;;;;;;;11.77;6.97;;;12.10;99.90;;;;;;6245473;23;20062;-80
2022/07/02 04:41:10;;;;;;;8.18;6.53;;;12.20;99.90;;;;;;6217714;23;20012;-80
2022/07/02 04:43:36;;;;;;;11.02;7.60;;;12.30;99.90;;;;;;6218458;23;20321;-80
2022/07/02 04:46:02;;;;;;;11.60;7.25;;;12.50;99.90;;;;;;6245255;23;20444;-80
2022/07/02 04:48:27;;;;;;;12.95;6.65;;;12.40;99.90;;;;;;6192665;23;20016;-80
2022/07/02 04:50:53;;;;;;;13.20;7.40;;;12.50;99.90;;;;;;6245103;23;20016;-81
2022/07/02 04:53:18;;;;;;;9.40;6.95;;;12.50;99.90;;;;;;6218571;23;20023;-80
2022/07/02 04:55:44;;;;;;;10.15;6.60;;;12.60;99.90;;;;;;6220466;23;20343;-80
2022/07/02 04:58:10;;;;;;;11.98;6.43;;;12.60;99.90;;;;;;6219896;23;20020;-81
2022/07/02 05:00:35;;;;;;;10.82;6.63;;;12.70;99.90;;;;;;6220186;23;20031;-80
2022/07/02 05:03:01;;;;;;;8.05;6.75;;;12.80;99.90;;;;;;6220115;23;20096;-80
2022/07/02 05:05:27;;;;;;;9.45;6.47;;;12.80;99.90;;;;;;6219476;23;20054;-80
2022/07/02 05:07:53;;;;;;;9.68;6.78;;;12.90;99.90;;;;;;6246425;23;20016;-80
2022/07/02 05:10:19;;;;;;;9.43;6.75;;;12.90;99.90;;;;;;6220101;23;20548;-81
2022/07/02 05:12:44;;;;;;;9.40;6.30;;;13.00;99.90;;;;;;6246770;23;20016;-81
2022/07/02 05:15:10;;;;;;;9.20;6.05;;;13.20;99.90;;;;;;6246887;23;20020;-81
2022/07/02 05:17:35;;;;;;;11.70;6.20;;;13.30;99.90;;;;;;6246722;23;20020;-80
2022/07/02 05:20:01;;;;;;;10.70;6.50;;;13.30;99.90;;;;;;6246672;23;20059;-81
2022/07/02 05:22:27;;;;;;;9.82;6.57;;;13.30;99.90;;;;;;6219778;23;20020;-81
2022/07/02 05:24:52;;;;;;;10.95;5.72;;;13.50;99.90;;;;;;6219941;23;20016;-80
2022/07/02 05:27:18;;;;;;;11.10;6.03;;;13.60;99.90;;;;;;6246644;23;20502;-81
2022/07/02 05:29:44;;;;;;;10.02;5.95;;;13.70;99.90;;;;;;6246514;23;20062;-80
2022/07/02 05:32:09;;;;;;;8.13;5.70;;;13.70;99.90;;;;;;6246690;23;20444;-83
2022/07/02 05:34:35;;;;;;;10.45;5.30;;;13.80;99.90;;;;;;6219738;23;20074;-80
2022/07/02 05:37:00;;;;;;;8.15;6.00;;;14.00;99.90;;;;;;6247000;23;20020;-82
2022/07/02 05:39:26;;;;;;;7.60;5.47;;;14.10;99.90;;;;;;6246551;23;20074;-81
2022/07/02 05:41:52;;;;;;;8.50;5.15;;;14.20;99.90;;;;;;6246346;23;20436;-80
2022/07/02 05:44:17;;;;;;;10.75;5.13;;;14.30;99.90;;;;;;6219557;23;20016;-81
2022/07/02 05:46:43;;;;;;;12.10;4.55;;;14.40;99.90;;;;;;6219845;23;20048;-81
2022/07/02 05:49:09;;;;;;;9.25;4.80;;;14.50;99.90;;;;;;6219386;23;20078;-81
2022/07/02 05:51:34;;;;;;;5.15;3.90;;;14.70;99.90;;;;;;6246414;23;20328;-81
2022/07/02 05:54:00;;;;;;;5.43;4.05;;;14.70;99.90;;;;;;6219573;23;20090;-80
2022/07/02 05:56:26;;;;;;;10.05;3.90;;;14.90;99.90;;;;;;6246262;23;20094;-81
2022/07/02 05:58:51;;;;;;;9.02;3.90;;;15.00;99.90;;;;;;6246310;23;20019;-81
2022/07/02 06:01:17;;;;;;;6.68;3.60;;;15.20;99.90;;;;;;6219314;23;20020;-80
2022/07/02 06:03:43;;;;;;;6.28;3.80;;;15.20;99.90;;;;;;6246177;23;20023;-80
2022/07/02 06:08:52;;;;;;;6.18;3.67;;;15.10;99.90;;;;;;6246532;23;20109;-80
2022/07/02 06:11:18;;;;;;;5.55;3.70;;;15.10;99.90;;;;;;6218645;23;20024;-85
2022/07/02 06:13:43;;;;;;;8.40;3.55;;;15.20;99.90;;;;;;6219310;23;20070;-83
2022/07/02 06:16:09;;;;;;;6.40;3.35;;;15.30;99.90;;;;;;6246305;23;20012;-81
2022/07/02 06:18:35;;;;;;;10.75;3.75;;;15.40;99.90;;;;;;6219432;23;20051;-82
2022/07/02 06:21:00;;;;;;;5.50;2.83;;;15.60;99.90;;;;;;6245944;23;20016;-81
2022/07/02 06:23:26;;;;;;;5.63;2.90;;;15.70;99.90;;;;;;6246031;23;20436;-81
2022/07/02 06:25:52;;;;;;;5.55;3.28;;;15.90;99.90;;;;;;6246091;23;20077;-80
2022/07/02 06:28:17;;;;;;;10.52;3.17;;;16.00;99.90;;;;;;6246207;23;20396;-81
2022/07/02 06:30:43;;;;;;;6.35;3.00;;;16.20;99.90;;;;;;6193627;23;20383;-80
2022/07/02 06:33:09;;;;;;;9.23;2.88;;;16.20;99.90;;;;;;6245844;23;20095;-81
2022/07/02 06:35:35;;;;;;;6.28;3.05;;;16.30;99.90;;;;;;6194290;23;20020;-81
2022/07/02 06:38:00;;;;;;;7.40;3.00;;;16.40;99.90;;;;;;6218682;23;20074;-82
2022/07/02 06:40:26;;;;;;;7.50;3.30;;;16.40;99.90;;;;;;6245721;23;20367;-81
2022/07/02 06:42:52;;;;;;;5.68;2.35;;;16.50;99.90;;;;;;6218633;23;20385;-81
2022/07/02 06:45:17;;;;;;;5.78;2.28;;;16.60;99.90;;;;;;6218887;23;20091;-81
2022/07/02 06:47:43;;;;;;;5.32;2.42;;;16.80;99.90;;;;;;6246168;23;20016;-81
2022/07/02 06:50:10;;;;;;;4.70;2.17;;;17.10;99.90;;;;;;6219041;23;20495;-81
2022/07/02 06:52:36;;;;;;;5.18;2.38;;;17.40;99.90;;;;;;6219002;23;20047;-81
2022/07/02 06:55:03;;;;;;;5.90;2.58;;;17.80;99.90;;;;;;6245773;23;20020;-81
2022/07/02 06:57:28;;;;;;;3.58;2.05;;;18.30;99.90;;;;;;6218823;23;20476;-81
2022/07/02 06:59:54;;;;;;;5.60;1.92;;;18.50;99.90;;;;;;6245707;23;20020;-82
2022/07/02 07:02:21;;;;;;;3.40;1.70;;;18.80;99.90;;;;;;6245523;23;20019;-81
2022/07/02 07:04:46;;;;;;;6.22;1.75;;;19.00;99.90;;;;;;6218485;23;20023;-83
2022/07/02 07:07:12;;;;;;;5.85;2.05;;;19.30;99.90;;;;;;6245628;23;20012;-81
2022/07/02 07:09:38;;;;;;;3.63;1.55;;;19.50;99.90;;;;;;6245604;23;20522;-82
2022/07/02 07:12:05;;;;;;;2.45;1.50;;;19.80;99.90;;;;;;6218793;23;20070;-82
2022/07/02 07:14:32;;;;;;;2.60;1.30;;;20.10;99.90;;;;;;6245238;23;20020;-83
2022/07/02 07:16:58;;;;;;;4.85;1.70;;;20.50;99.90;;;;;;6245378;23;20024;-82
2022/07/02 07:19:24;;;;;;;2.80;1.27;;;20.60;99.90;;;;;;6245538;23;20301;-81
2022/07/02 07:21:49;;;;;;;4.20;1.70;;;20.80;99.90;;;;;;6245810;23;20015;-81
2022/07/02 07:24:15;;;;;;;2.42;1.30;;;20.80;99.90;;;;;;6218895;23;20012;-82
2022/07/02 07:26:41;;;;;;;3.70;1.30;;;20.70;99.90;;;;;;6245578;23;20012;-82
2022/07/02 07:29:07;;;;;;;4.05;1.63;;;20.90;99.90;;;;;;6245150;23;20016;-82
2022/07/02 07:31:34;;;;;;;4.30;1.23;;;21.40;99.40;;;;;;6192793;23;20018;-87
2022/07/02 07:34:00;;;;;;;2.35;1.25;;;21.90;98.60;;;;;;6245508;23;20012;-82
2022/07/02 07:36:26;;;;;;;2.90;1.50;;;22.30;92.90;;;;;;6245465;23;20016;-82
2022/07/02 07:38:52;;;;;;;5.57;1.60;;;23.10;88.90;;;;;;6245610;23;20070;-83
2022/07/02 07:41:19;;;;;;;5.45;1.40;;;23.30;78.60;;;;;;6245232;23;20242;-82
2022/07/02 07:43:45;;;;;;;2.45;1.05;;;23.10;80.70;;;;;;6218720;23;20023;-82
2022/07/02 07:46:11;;;;;;;2.95;1.40;;;23.00;81.90;;;;;;6245526;23;20016;-82
2022/07/02 07:48:36;;;;;;;4.68;1.67;;;23.00;79.30;;;;;;6218128;23;20027;-82
2022/07/02 07:51:05;;;;;;;9.57;1.90;;;22.60;89.60;;;;;;6245231;23;20012;-82
2022/07/02 07:53:31;;;;;;;3.67;1.35;;;22.30;90.20;;;;;;6245350;23;20347;-81
2022/07/02 07:55:56;;;;;;;2.50;1.05;;;22.80;88.50;;;;;;6245475;23;20043;-82
2022/07/02 07:58:22;;;;;;;7.00;1.15;;;23.10;83.00;;;;;;6245509;23;20463;-83
2022/07/02 08:00:48;;;;;;;3.10;1.20;;;23.50;72.90;;;;;;6218418;23;20518;-81
2022/07/02 08:03:14;;;;;;;2.30;1.00;;;24.00;69.40;;;;;;6245487;23;20031;-82
2022/07/02 08:05:41;;;;;;;2.70;0.60;;;24.40;65.10;;;;;;6245641;23;20020;-83
2022/07/02 08:08:07;;;;;;;5.07;1.02;;;24.90;62.70;;;;;;6218531;23;20078;-82
2022/07/02 08:10:33;;;;;;;2.22;1.00;;;25.50;60.10;;;;;;6245340;23;20036;-83
2022/07/02 08:12:59;;;;;;;2.03;0.70;;;25.90;57.60;;;;;;6245232;23;20383;-82
2022/07/02 08:15:25;;;;;;;2.85;0.90;;;25.90;57.50;;;;;;6244934;23;20444;-83
2022/07/02 08:17:51;;;;;;;4.25;0.60;;;26.00;56.70;;;;;;6244998;23;20022;-83
2022/07/02 08:20:16;;;;;;;2.80;0.90;;;26.30;57.00;;;;;;6218476;23;20012;-83
2022/07/02 08:22:46;;;;;;;1.63;0.55;;;26.70;54.00;;;;;;6218014;23;20016;-83
2022/07/02 08:25:13;;;;;;;2.13;0.80;;;26.90;53.30;;;;;;6245288;23;20024;-83
2022/07/02 08:27:42;;;;;;;3.10;0.60;;;27.30;52.20;;;;;;6245670;23;20326;-83
2022/07/02 08:30:09;;;;;;;2.80;0.70;;;27.70;51.10;;;;;;6247239;23;20098;-83
2022/07/02 08:32:34;;;;;;;3.30;0.60;;;28.00;49.70;;;;;;6195550;23;20390;-82
2022/07/02 08:35:00;;;;;;;3.08;0.82;;;28.00;49.20;;;;;;6247198;23;20016;-83
2022/07/02 08:37:26;;;;;;;6.75;0.60;;;28.20;48.10;;;;;;6247297;23;20325;-82
2022/07/02 08:39:52;;;;;;;1.88;0.60;;;28.40;49.10;;;;;;6247037;23;20027;-83
2022/07/02 08:42:29;;;;;;;1.92;0.50;;;28.90;48.10;;;;;;6246831;23;20488;-88
2022/07/02 08:44:59;;;;;;;1.05;0.60;;;28.90;46.60;;;;;;6247127;23;20075;-83
2022/07/02 08:47:26;;;;;;;2.38;0.60;;;28.80;46.60;;;;;;6247109;23;20012;-86
2022/07/02 08:49:53;;;;;;;2.58;0.63;;;28.70;46.80;;;;;;6246977;23;20017;-82
2022/07/02 08:52:20;;;;;;;1.27;0.65;;;28.80;46.20;;;;;;6246865;23;20016;-83
2022/07/02 08:54:47;;;;;;;1.23;0.60;;;28.80;45.70;;;;;;6220424;23;20071;-81
2022/07/02 08:57:14;;;;;;;1.70;0.50;;;28.80;45.50;;;;;;6219948;23;20099;-84
2022/07/02 08:59:40;;;;;;;2.60;0.50;;;28.80;45.70;;;;;;6220075;23;20049;-82
2022/07/02 09:02:07;;;;;;;1.67;0.68;;;29.00;45.90;;;;;;6246827;23;20012;-82
2022/07/02 09:04:40;;;;;;;1.63;0.68;;;29.10;45.20;;;;;;6219427;23;20024;-84
2022/07/02 09:07:07;;;;;;;2.08;0.73;;;29.30;44.90;;;;;;6219301;23;20020;-84
2022/07/02 09:09:33;;;;;;;2.65;0.50;;;29.50;45.00;;;;;;6246841;23;20022;-83
2022/07/02 09:12:00;;;;;;;1.13;0.60;;;29.70;44.10;;;;;;6246751;23;20094;-82
2022/07/02 09:14:27;;;;;;;1.95;0.50;;;30.20;43.40;;;;;;6246670;23;20024;-85
2022/07/02 09:16:53;;;;;;;1.73;0.45;;;30.50;42.80;;;;;;6219903;23;20024;-84
2022/07/02 09:19:18;;;;;;;3.60;0.70;;;30.60;42.00;;;;;;6246256;23;20336;-84
2022/07/02 09:21:51;;;;;;;2.45;0.40;;;30.50;42.50;;;;;;6246607;23;20016;-83
2022/07/02 09:24:39;;;;;;;1.48;0.60;;;30.80;42.10;;;;;;6220063;23;20339;-84
2022/07/02 09:27:13;;;;;;;3.92;0.60;;;30.50;40.30;;;;;;6246412;23;20016;-83
2022/07/02 09:29:52;;;;;;;2.00;0.90;;;30.60;42.90;;;;;;6246829;23;20023;-82
2022/07/02 09:32:19;;;;;;;2.42;0.55;;;30.70;41.70;;;;;;6246690;23;20024;-89
2022/07/02 09:34:46;;;;;;;1.80;0.63;;;30.80;43.30;;;;;;6246748;23;20017;-82
2022/07/02 09:37:21;;;;;;;3.08;0.70;;;31.10;42.80;;;;;;6219857;23;20066;-82
2022/07/02 09:39:48;;;;;;;2.38;0.70;;;31.20;41.40;;;;;;6246473;23;20016;-83
2022/07/02 09:42:27;;;;;;;1.98;0.70;;;31.10;41.20;;;;;;6246507;23;20016;-91
2022/07/02 09:44:54;;;;;;;3.20;0.63;;;30.90;40.50;;;;;;6219993;23;20020;-83
2022/07/02 09:47:39;;;;;;;2.28;0.60;;;30.60;42.00;;;;;;6246134;23;20460;-83
2022/07/02 09:50:10;;;;;;;2.60;0.82;;;31.00;42.60;;;;;;6219659;23;20065;-83
2022/07/02 09:52:48;;;;;;;1.83;0.70;;;31.50;41.40;;;;;;6246277;23;20016;-83
2022/07/02 09:55:26;;;;;;;2.05;0.80;;;32.00;40.90;;;;;;6246521;23;20341;-83
2022/07/02 09:57:58;;;;;;;3.17;0.68;;;32.00;39.60;;;;;;6246478;23;20039;-83
2022/07/02 10:00:26;;;;;;;3.78;0.80;;;31.80;40.20;;;;;;6246290;23;20020;-85
2022/07/02 10:02:54;;;;;;;1.38;0.57;;;31.30;39.90;;;;;;6246231;23;20013;-83
2022/07/02 10:05:33;;;;;;;0.63;0.50;;;31.20;40.70;;;;;;6219259;23;20012;-83
2022/07/02 10:08:01;;;;;;;3.90;0.73;;;31.10;40.60;;;;;;6219266;23;20039;-83
2022/07/02 10:10:38;;;;;;;1.02;0.50;;;31.00;40.70;;;;;;6246190;23;20043;-82
2022/07/02 10:13:05;;;;;;;2.80;0.75;;;30.50;41.30;;;;;;6219389;23;20012;-83
2022/07/02 10:15:32;;;;;;;1.13;0.60;;;30.60;41.00;;;;;;6219312;23;20020;-82
2022/07/02 10:18:00;;;;;;;2.95;0.95;;;30.60;41.50;;;;;;6168854;23;20024;-83
2022/07/02 10:20:28;;;;;;;3.38;1.00;;;30.90;41.90;;;;;;6219396;23;20321;-83
2022/07/02 10:22:57;;;;;;;3.20;0.85;;;31.00;41.10;;;;;;6219333;23;20017;-83
2022/07/02 10:25:23;;;;;;;1.08;0.40;;;30.50;41.60;;;;;;6246172;23;20012;-83
2022/07/02 10:27:51;;;;;;;2.05;0.80;;;29.40;43.40;;;;;;6246029;23;20498;-83
2022/07/02 10:30:20;;;;;;;2.70;0.75;;;28.70;44.80;;;;;;6219236;23;20016;-82
2022/07/02 10:33:10;;;;;;;2.53;0.57;;;28.70;44.60;;;;;;6246061;23;20429;-84
2022/07/02 10:35:38;;;;;;;2.08;0.65;;;29.10;44.20;;;;;;6219407;23;20390;-83
2022/07/02 10:38:06;;;;;;;3.33;0.80;;;28.90;43.10;;;;;;6219286;23;20340;-83
2022/07/02 10:40:32;;;;;;;2.40;0.50;;;28.70;43.60;;;;;;6245868;23;20109;-88
2022/07/02 10:42:59;;;;;;;3.28;0.63;;;28.50;44.90;;;;;;6218454;23;20016;-84
2022/07/02 10:45:26;;;;;;;1.73;0.63;;;28.40;45.90;;;;;;6245828;23;20019;-83
2022/07/02 10:48:04;;;;;;;2.65;0.80;;;28.00;46.60;;;;;;6193960;23;20516;-83
2022/07/02 10:50:37;;;;;;;1.38;0.68;;;28.00;46.00;;;;;;6218708;23;20058;-83
2022/07/02 10:53:10;;;;;;;2.40;0.65;;;28.00;46.30;;;;;;6245702;23;20087;-83
2022/07/02 10:55:38;;;;;;;2.47;0.85;;;27.70;46.80;;;;;;6245752;23;20094;-83
2022/07/02 10:58:05;;;;;;;2.38;0.75;;;27.30;47.60;;;;;;6193791;23;20020;-83
2022/07/02 11:00:40;;;;;;;3.50;0.70;;;26.80;47.80;;;;;;6245757;23;20027;-83
2022/07/02 11:03:16;;;;;;;1.60;0.50;;;26.40;48.90;;;;;;6245931;23;20020;-82
2022/07/02 11:06:06;;;;;;;3.45;0.70;;;26.80;48.70;;;;;;6245686;23;20016;-83
2022/07/02 11:08:41;;;;;;;1.20;0.50;;;26.80;48.70;;;;;;6218569;23;20027;-82
2022/07/02 11:11:27;;;;;;;2.97;0.77;;;26.40;49.20;;;;;;6245554;23;20016;-83
2022/07/02 11:14:01;;;;;;;2.72;0.68;;;26.20;49.20;;;;;;6217508;23;20016;-83
2022/07/02 11:16:29;;;;;;;2.55;0.60;;;26.00;49.10;;;;;;6245189;23;20456;-83
2022/07/02 11:18:58;;;;;;;2.40;0.68;;;25.90;50.30;;;;;;6245620;23;20020;-83
2022/07/02 11:21:25;;;;;;;3.08;0.50;;;25.80;51.10;;;;;;6218691;23;20436;-83
2022/07/02 11:23:52;;;;;;;2.70;0.90;;;25.40;51.40;;;;;;6245562;23;20380;-83
2022/07/02 11:26:24;;;;;;;2.35;0.80;;;25.30;51.20;;;;;;6218662;23;20024;-83
2022/07/02 11:28:50;;;;;;;2.10;0.60;;;26.60;50.10;;;;;;6218213;23;20095;-83
2022/07/02 11:31:18;;;;;;;2.33;0.63;;;28.00;47.80;;;;;;6218710;23;20020;-82
2022/07/02 11:33:55;;;;;;;4.72;1.25;;;28.60;46.40;;;;;;6245309;23;20016;-83
2022/07/02 11:36:21;;;;;;;5.75;0.88;;;28.20;46.20;;;;;;6245346;23;20023;-83
2022/07/02 11:38:49;;;;;;;4.35;0.75;;;27.80;46.00;;;;;;6218734;23;20416;-83
2022/07/02 11:41:26;;;;;;;2.42;0.63;;;27.30;47.60;;;;;;6218515;23;20066;-83
2022/07/02 11:43:54;;;;;;;2.60;0.60;;;27.80;47.00;;;;;;6194424;23;20441;-82
2022/07/02 11:46:23;;;;;;;2.13;0.68;;;28.70;46.40;;;;;;6218471;23;20015;-83
2022/07/02 11:48:50;;;;;;;2.67;0.80;;;29.60;44.80;;;;;;6245255;23;20110;-83
2022/07/02 11:51:19;;;;;;;2.72;0.70;;;29.90;43.60;;;;;;6245184;23;20019;-82
2022/07/02 11:54:02;;;;;;;3.95;0.60;;;30.30;43.70;;;;;;6218383;23;20339;-86
2022/07/02 11:56:33;;;;;;;3.38;0.70;;;30.10;43.10;;;;;;6245001;23;20016;-83
2022/07/02 11:58:58;;;;;;;2.80;0.70;;;29.10;43.90;;;;;;6218339;23;20047;-83
2022/07/02 12:01:31;;;;;;;2.60;0.50;;;28.60;46.40;;;;;;6245234;23;20015;-83
2022/07/02 12:04:02;;;;;;;3.80;0.73;;;28.50;45.20;;;;;;6247063;23;20027;-83
2022/07/02 12:06:31;;;;;;;5.68;0.90;;;28.10;44.90;;;;;;6247073;23;20024;-83
2022/07/02 12:08:58;;;;;;;2.75;0.60;;;27.30;46.30;;;;;;6246716;23;20087;-82
2022/07/02 12:11:25;;;;;;;2.33;0.47;;;27.00;47.60;;;;;;6247368;23;20087;-82
2022/07/02 12:13:52;;;;;;;4.45;0.65;;;26.80;47.40;;;;;;6247167;23;20019;-84
2022/07/02 12:16:24;;;;;;;1.08;0.50;;;26.70;48.00;;;;;;6220482;23;20020;-82
2022/07/02 12:19:16;;;;;;;4.15;0.50;;;26.70;48.70;;;;;;6220194;23;20020;-81
2022/07/02 12:21:51;;;;;;;3.95;0.80;;;26.70;48.70;;;;;;6214213;23;20340;-82
2022/07/02 12:24:27;;;;;;;3.53;0.60;;;26.30;49.60;;;;;;6247269;23;20022;-83
2022/07/02 12:27:02;;;;;;;2.97;0.82;;;26.20;50.10;;;;;;6220119;23;20022;-83
2022/07/02 12:32:19;;;;;;;1.88;0.77;;;27.40;49.90;;;;;;6247427;23;20078;-83
2022/07/02 12:34:46;;;;;;;5.00;1.00;;;28.60;48.00;;;;;;6247294;23;20332;-83
2022/07/02 12:37:32;;;;;;;2.67;0.70;;;29.60;46.20;;;;;;6246771;23;20487;-82
2022/07/02 12:40:03;;;;;;;3.75;0.80;;;29.70;44.20;;;;;;6242063;23;20024;-83
2022/07/02 12:42:33;;;;;;;4.47;0.70;;;29.10;45.00;;;;;;6220347;23;20102;-83
2022/07/02 12:45:05;;;;;;;3.05;1.00;;;28.30;45.80;;;;;;6246933;23;20455;-83
2022/07/02 12:47:36;;;;;;;5.30;0.82;;;27.50;46.40;;;;;;6194642;23;20024;-82
2022/07/02 12:50:14;;;;;;;4.63;0.82;;;26.90;48.40;;;;;;6220237;23;20024;-82
2022/07/02 12:53:14;;;;;;;2.83;0.80;;;26.80;48.70;;;;;;6220015;23;20451;-83
2022/07/02 12:55:43;;;;;;;2.28;0.82;;;26.70;51.70;;;;;;6195409;23;20054;-82
2022/07/02 12:58:13;;;;;;;3.38;1.00;;;26.50;50.50;;;;;;6246898;23;20095;-82